Time;durP1;ratioP1;P1;durP2;ratioP2;P2;SDS_P1;SDS_P2;PMS_P1;PMS_P2;Temp;Humidity;BMP_temperature;BMP_pressure;BME280_temperature;BME280_humidity;BME280_pressure;Samples;Min_cycle;Max_cycle;Signal;HPM_P1;HPM_P2
2023/11/28 00:00:09;;;;;;;1.42;0.90;;;;;;;;;;10522642;28;20042;-74
2023/11/28 00:05:13;;;;;;;0.70;0.70;;;;;;;;;;10520131;28;20048;-74
2023/11/28 00:10:17;;;;;;;0.70;0.70;;;;;;;;;;10522570;28;20036;-74
2023/11/28 00:15:22;;;;;;;0.82;0.80;;;;;;;;;;10515806;28;20040;-74
2023/11/28 00:20:25;;;;;;;1.17;0.85;;;;;;;;;;10518842;28;20686;-74
2023/11/28 00:25:29;;;;;;;0.82;0.80;;;;;;;;;;10524527;28;20044;-74
2023/11/28 00:30:33;;;;;;;0.90;0.70;;;;;;;;;;10520821;28;20402;-74
2023/11/28 00:35:36;;;;;;;1.33;1.20;;;;;;;;;;10502086;28;20420;-74
2023/11/28 00:40:41;;;;;;;0.60;0.60;;;;;;;;;;10497637;28;20129;-74
2023/11/28 00:45:45;;;;;;;0.80;0.80;;;;;;;;;;10522647;28;20036;-74
2023/11/28 00:50:50;;;;;;;1.10;1.00;;;;;;;;;;10527806;28;20112;-74
2023/11/28 00:55:53;;;;;;;2.05;1.08;;;;;;;;;;10525805;28;20559;-74
2023/11/28 01:00:58;;;;;;;1.30;1.20;;;;;;;;;;10526282;28;20039;-74
2023/11/28 01:06:01;;;;;;;0.80;0.80;;;;;;;;;;10508148;28;20528;-74
2023/11/28 01:11:06;;;;;;;0.93;0.90;;;;;;;;;;10528894;28;20032;-75
2023/11/28 01:16:11;;;;;;;0.70;0.70;;;;;;;;;;10529623;28;20080;-75
2023/11/28 01:21:15;;;;;;;0.60;0.60;;;;;;;;;;10529120;28;20127;-75
2023/11/28 01:26:18;;;;;;;0.60;0.60;;;;;;;;;;10505052;28;20054;-75
2023/11/28 01:31:24;;;;;;;0.70;0.70;;;;;;;;;;10530449;28;20032;-75
2023/11/28 01:36:27;;;;;;;;;;;;;;;;;;10529042;28;20659;-75
2023/11/28 01:41:30;;;;;;;0.60;0.60;;;;;;;;;;10506792;28;19927;-75
2023/11/28 01:46:36;;;;;;;0.63;0.63;;;;;;;;;;10527591;28;20040;-75
2023/11/28 01:51:40;;;;;;;0.80;0.80;;;;;;;;;;10521233;28;20402;-75
2023/11/28 01:56:44;;;;;;;0.70;0.70;;;;;;;;;;10521070;28;20097;-75
2023/11/28 02:01:51;;;;;;;0.75;0.75;;;;;;;;;;10529451;28;20075;-75
2023/11/28 02:06:54;;;;;;;0.98;0.88;;;;;;;;;;10529904;28;20036;-75
2023/11/28 02:11:58;;;;;;;0.50;0.50;;;;;;;;;;10527385;28;20036;-75
2023/11/28 02:17:03;;;;;;;0.70;0.70;;;;;;;;;;10508774;28;20049;-75
2023/11/28 02:22:08;;;;;;;0.50;0.40;;;;;;;;;;10520716;28;20041;-75
2023/11/28 02:27:13;;;;;;;0.90;0.85;;;;;;;;;;10525812;28;20791;-75
2023/11/28 02:32:16;;;;;;;0.65;0.60;;;;;;;;;;10510648;28;20044;-75
2023/11/28 02:37:20;;;;;;;0.50;0.50;;;;;;;;;;10527338;28;20137;-75
2023/11/28 02:42:24;;;;;;;0.60;0.60;;;;;;;;;;10525300;28;20523;-75
2023/11/28 02:47:27;;;;;;;0.50;0.50;;;;;;;;;;10525646;28;20044;-75
2023/11/28 02:52:31;;;;;;;0.40;0.40;;;;;;;;;;10526863;28;20046;-75
2023/11/28 02:57:36;;;;;;;0.50;0.50;;;;;;;;;;10508289;28;20040;-77
2023/11/28 03:02:39;;;;;;;0.50;0.50;;;;;;;;;;10526377;28;20040;-75
2023/11/28 03:07:43;;;;;;;0.60;0.60;;;;;;;;;;10527489;28;20047;-76
2023/11/28 03:12:47;;;;;;;0.50;0.50;;;;;;;;;;10510737;28;20036;-76
2023/11/28 03:17:50;;;;;;;0.50;0.50;;;;;;;;;;10527196;28;20036;-76
2023/11/28 03:22:54;;;;;;;0.60;0.57;;;;;;;;;;10526590;28;20032;-75
2023/11/28 03:27:58;;;;;;;0.50;0.50;;;;;;;;;;10527394;28;20111;-75
2023/11/28 03:33:02;;;;;;;0.57;0.57;;;;;;;;;;10506375;28;20593;-75
2023/11/28 03:38:07;;;;;;;0.60;0.60;;;;;;;;;;10502944;28;20502;-76
2023/11/28 03:43:12;;;;;;;0.50;0.50;;;;;;;;;;10523017;28;20122;-76
2023/11/28 03:48:15;;;;;;;0.68;0.68;;;;;;;;;;10522259;28;20119;-76
2023/11/28 03:53:18;;;;;;;0.60;0.60;;;;;;;;;;10526543;28;20044;-75
2023/11/28 04:29:32;;;;;;;0.70;0.70;;;;;;;;;;10435531;22;20048;-88
2023/11/28 04:34:36;;;;;;;;;;;;;;;;;;10434116;28;20041;-87
2023/11/28 04:39:40;;;;;;;1.40;1.30;;;;;;;;;;10440068;28;19963;-88
2023/11/28 04:44:45;;;;;;;1.63;1.40;;;;;;;;;;10432648;28;20091;-88
2023/11/28 04:49:48;;;;;;;3.15;2.50;;;;;;;;;;10434561;28;20555;-87
2023/11/28 04:54:52;;;;;;;3.25;2.30;;;;;;;;;;10418215;28;20840;-88
2023/11/28 04:59:56;;;;;;;1.50;1.40;;;;;;;;;;10434286;28;20144;-86
2023/11/28 05:05:00;;;;;;;4.07;2.70;;;;;;;;;;10435711;28;20049;-88
2023/11/28 05:10:05;;;;;;;12.55;8.27;;;;;;;;;;10433879;28;20047;-87
2023/11/28 05:15:10;;;;;;;13.57;8.45;;;;;;;;;;10437972;28;20052;-87
2023/11/28 05:20:14;;;;;;;8.47;5.23;;;;;;;;;;10440524;28;20577;-87
2023/11/28 05:25:18;;;;;;;5.25;3.55;;;;;;;;;;10430339;28;20381;-87
2023/11/28 05:30:23;;;;;;;11.32;8.50;;;;;;;;;;10430949;28;20460;-87
2023/11/28 05:35:26;;;;;;;5.75;4.10;;;;;;;;;;10435438;28;20053;-88
2023/11/28 05:40:32;;;;;;;2.88;1.70;;;;;;;;;;10440989;28;20667;-87
2023/11/28 05:45:38;;;;;;;1.20;1.10;;;;;;;;;;10438385;28;20132;-87
2023/11/28 05:50:42;;;;;;;0.73;0.73;;;;;;;;;;10433301;28;20045;-87
2023/11/28 05:55:46;;;;;;;1.55;0.70;;;;;;;;;;10445205;28;20056;-88
2023/11/28 06:00:51;;;;;;;1.67;0.90;;;;;;;;;;10433717;28;20551;-87
2023/11/28 06:05:54;;;;;;;0.98;0.63;;;;;;;;;;10427865;28;20127;-87
2023/11/28 06:10:58;;;;;;;0.63;0.60;;;;;;;;;;10439802;28;20105;-88
2023/11/28 06:16:05;;;;;;;0.52;0.52;;;;;;;;;;10442153;28;20107;-88
2023/11/28 06:21:11;;;;;;;0.70;0.70;;;;;;;;;;10435192;28;20047;-89
2023/11/28 06:26:15;;;;;;;1.48;1.20;;;;;;;;;;10439686;28;20064;-88
2023/11/28 06:31:20;;;;;;;0.98;0.85;;;;;;;;;;10462609;28;20053;-87
2023/11/28 06:36:24;;;;;;;0.70;0.70;;;;;;;;;;10437947;28;20052;-88
2023/11/28 06:41:27;;;;;;;1.35;1.00;;;;;;;;;;10440121;28;20103;-88
2023/11/28 06:46:32;;;;;;;1.20;1.10;;;;;;;;;;10446544;28;20056;-85
2023/11/28 06:51:36;;;;;;;1.73;1.17;;;;;;;;;;10437642;28;20033;-87
2023/11/28 06:56:39;;;;;;;0.90;0.90;;;;;;;;;;10429966;28;20099;-88
2023/11/28 07:01:44;;;;;;;1.55;1.23;;;;;;;;;;10438345;28;20064;-88
2023/11/28 07:06:47;;;;;;;1.10;1.00;;;;;;;;;;10427352;28;20053;-88
2023/11/28 07:11:53;;;;;;;2.00;1.25;;;;;;;;;;10427023;28;20132;-88
2023/11/28 07:16:58;;;;;;;;;;;;;;;;;;10432996;28;20041;-88
2023/11/28 07:22:01;;;;;;;1.42;1.33;;;;;;;;;;10444009;28;19924;-88
2023/11/28 07:27:05;;;;;;;1.50;1.40;;;;;;;;;;10450558;28;20053;-88
2023/11/28 07:32:10;;;;;;;3.78;2.45;;;;;;;;;;10431807;28;20048;-88
2023/11/28 07:37:13;;;;;;;1.40;1.30;;;;;;;;;;10430724;28;20056;-88
2023/11/28 07:42:17;;;;;;;1.60;1.42;;;;;;;;;;10431442;28;20130;-88
2023/11/28 07:47:23;;;;;;;2.53;2.33;;;;;;;;;;10429883;28;20461;-88
2023/11/28 07:52:26;;;;;;;7.43;5.97;;;;;;;;;;10457305;28;20418;-88
2023/11/28 07:57:29;;;;;;;6.53;5.78;;;;;;;;;;10452028;28;20068;-87
2023/11/28 08:02:34;;;;;;;3.88;3.42;;;;;;;;;;10433985;28;20142;-88
2023/11/28 08:07:38;;;;;;;2.90;2.60;;;;;;;;;;10436777;28;20534;-87
2023/11/28 08:12:41;;;;;;;1.25;1.15;;;;;;;;;;10432923;28;20048;-87
2023/11/28 08:17:46;;;;;;;1.17;1.00;;;;;;;;;;10440463;28;20057;-88
2023/11/28 08:22:49;;;;;;;1.40;1.30;;;;;;;;;;10435388;28;20403;-87
2023/11/28 08:27:53;;;;;;;1.30;1.20;;;;;;;;;;10440763;28;20106;-88
2023/11/28 08:32:58;;;;;;;1.30;1.20;;;;;;;;;;10458927;28;20564;-88
2023/11/28 08:38:01;;;;;;;1.00;1.00;;;;;;;;;;10432539;28;20136;-87
2023/11/28 08:43:04;;;;;;;1.50;1.20;;;;;;;;;;10434825;28;20052;-87
2023/11/28 08:48:10;;;;;;;2.20;1.90;;;;;;;;;;10444251;28;20056;-88
2023/11/28 08:53:13;;;;;;;1.70;1.60;;;;;;;;;;10431207;28;20072;-87
2023/11/28 08:58:17;;;;;;;1.50;1.40;;;;;;;;;;10434241;28;20051;-87
2023/11/28 09:03:23;;;;;;;2.10;1.70;;;;;;;;;;10438297;28;20076;-87
2023/11/28 09:08:27;;;;;;;;;;;;;;;;;;10447658;28;20106;-88
2023/11/28 09:13:31;;;;;;;1.88;1.65;;;;;;;;;;10468246;28;19924;-88
2023/11/28 09:18:36;;;;;;;2.10;1.90;;;;;;;;;;10440385;28;20053;-88
2023/11/28 09:23:40;;;;;;;2.40;2.00;;;;;;;;;;10436457;28;20048;-88
2023/11/28 09:28:43;;;;;;;3.15;2.40;;;;;;;;;;10438611;28;20056;-87
2023/11/28 09:33:48;;;;;;;2.28;1.83;;;;;;;;;;10434167;28;20048;-88
2023/11/28 09:38:53;;;;;;;2.28;2.08;;;;;;;;;;10449012;28;20463;-88
2023/11/28 09:43:56;;;;;;;2.10;1.90;;;;;;;;;;10458377;28;20041;-88
2023/11/28 09:49:03;;;;;;;2.05;1.75;;;;;;;;;;10464586;28;20076;-88
2023/11/28 09:54:08;;;;;;;1.73;1.63;;;;;;;;;;10442329;28;20144;-87
2023/11/28 09:59:18;;;;;;;1.63;1.45;;;;;;;;;;10498151;22;20061;-76
2023/11/28 10:04:23;;;;;;;2.60;2.13;;;;;;;;;;10487735;28;20158;-76
2023/11/28 10:09:33;;;;;;;3.15;2.17;;;;;;;;;;10490277;28;20083;-77
2023/11/28 10:14:40;;;;;;;3.65;3.10;;;;;;;;;;10489882;28;20041;-76
2023/11/28 10:19:47;;;;;;;;;;;;;;;;;;10490388;28;20048;-77
2023/11/28 10:24:55;;;;;;;3.70;2.70;;;;;;;;;;10463661;28;19931;-76
2023/11/28 10:29:59;;;;;;;3.30;3.00;;;;;;;;;;10489528;28;20055;-76
2023/11/28 10:35:06;;;;;;;3.20;2.65;;;;;;;;;;10490302;28;20139;-76
2023/11/28 10:40:18;;;;;;;4.35;3.95;;;;;;;;;;10488953;28;20083;-76
2023/11/28 10:45:27;;;;;;;4.47;3.40;;;;;;;;;;10487542;28;20065;-77
2023/11/28 10:50:35;;;;;;;4.82;3.53;;;;;;;;;;10486392;28;20041;-76
2023/11/28 10:55:57;;;;;;;6.05;3.58;;;;;;;;;;10491122;28;20040;-76
2023/11/28 11:01:07;;;;;;;3.65;3.22;;;;;;;;;;10530491;28;20109;-76
2023/11/28 11:06:18;;;;;;;7.53;4.65;;;;;;;;;;10529985;28;20044;-76
2023/11/28 11:11:39;;;;;;;5.50;3.97;;;;;;;;;;10529494;28;20059;-76
2023/11/28 11:16:54;;;;;;;4.40;3.00;;;;;;;;;;10526586;28;20306;-76
2023/11/28 11:22:06;;;;;;;3.67;2.90;;;;;;;;;;10527076;28;20477;-76
2023/11/28 11:27:10;;;;;;;3.30;2.40;;;;;;;;;;10507825;28;20055;-76
2023/11/28 11:32:18;;;;;;;4.57;2.85;;;;;;;;;;10534154;28;20655;-76
2023/11/28 11:37:32;;;;;;;3.95;2.50;;;;;;;;;;10531024;28;20048;-77
2023/11/28 11:42:39;;;;;;;3.92;3.10;;;;;;;;;;10528857;28;20047;-77
2023/11/28 11:47:44;;;;;;;4.20;3.38;;;;;;;;;;10528874;28;20501;-76
2023/11/28 11:52:49;;;;;;;3.20;2.30;;;;;;;;;;10525864;28;20052;-76
2023/11/28 11:57:53;;;;;;;3.65;2.75;;;;;;;;;;10502042;28;20048;-76
2023/11/28 12:03:00;;;;;;;2.50;2.17;;;;;;;;;;10486696;28;20049;-76
2023/11/28 12:08:07;;;;;;;2.05;1.85;;;;;;;;;;10486153;28;20095;-76
2023/11/28 12:13:11;;;;;;;1.77;1.40;;;;;;;;;;10486010;28;20071;-76
2023/11/28 12:18:15;;;;;;;1.40;1.30;;;;;;;;;;10482766;28;20398;-77
2023/11/28 12:23:22;;;;;;;2.45;1.85;;;;;;;;;;10486045;28;20049;-76
2023/11/28 12:28:36;;;;;;;2.63;1.50;;;;;;;;;;10485005;28;20059;-76
2023/11/28 12:33:40;;;;;;;2.88;1.80;;;;;;;;;;10484432;28;20068;-76
2023/11/28 12:38:52;;;;;;;3.25;2.00;;;;;;;;;;10484081;28;20048;-76
2023/11/28 12:44:03;;;;;;;1.67;1.55;;;;;;;;;;10494111;28;20625;-76
2023/11/28 12:49:24;;;;;;;2.20;2.00;;;;;;;;;;10493759;28;20060;-77
2023/11/28 12:54:35;;;;;;;2.05;1.73;;;;;;;;;;10492773;28;20580;-76
2023/11/28 12:59:39;;;;;;;2.80;2.08;;;;;;;;;;10512676;28;20062;-76
2023/11/28 13:05:01;;;;;;;3.20;2.08;;;;;;;;;;10535184;28;20127;-76
2023/11/28 13:10:09;;;;;;;2.97;2.10;;;;;;;;;;10532612;28;20039;-76
2023/11/28 13:15:15;;;;;;;5.25;2.70;;;;;;;;;;10534541;28;20072;-76
2023/11/28 13:20:22;;;;;;;4.30;2.50;;;;;;;;;;10534810;28;20040;-76
2023/11/28 13:25:28;;;;;;;4.22;2.53;;;;;;;;;;10534507;28;20485;-77
2023/11/28 13:30:38;;;;;;;4.15;2.50;;;;;;;;;;10534365;28;20139;-76
2023/11/28 13:35:42;;;;;;;4.07;2.55;;;;;;;;;;10532400;28;20048;-76
2023/11/28 13:40:50;;;;;;;2.63;1.85;;;;;;;;;;10529870;28;20161;-76
2023/11/28 13:45:54;;;;;;;2.55;1.83;;;;;;;;;;10531492;28;20040;-76
2023/11/28 13:50:57;;;;;;;1.73;1.63;;;;;;;;;;10529577;28;20059;-76
2023/11/28 13:56:03;;;;;;;1.92;1.80;;;;;;;;;;10521438;28;20076;-76
2023/11/28 14:01:07;;;;;;;2.03;1.50;;;;;;;;;;10490531;28;20664;-76
2023/11/28 14:06:10;;;;;;;2.22;1.80;;;;;;;;;;10489770;28;20071;-76
2023/11/28 14:11:17;;;;;;;2.20;1.80;;;;;;;;;;10489860;28;20648;-76
2023/11/28 14:16:20;;;;;;;2.25;1.92;;;;;;;;;;10488542;28;20559;-77
2023/11/28 14:21:23;;;;;;;3.47;2.47;;;;;;;;;;10487380;28;20055;-76
2023/11/28 14:26:28;;;;;;;1.77;1.58;;;;;;;;;;10487601;28;20078;-76
2023/11/28 14:31:32;;;;;;;1.60;1.50;;;;;;;;;;10491495;28;20530;-74
2023/11/28 14:36:35;;;;;;;1.40;1.30;;;;;;;;;;10471823;28;20045;-74
2023/11/28 14:41:40;;;;;;;3.42;2.30;;;;;;;;;;10471980;28;20044;-74
2023/11/28 14:46:44;;;;;;;2.10;1.85;;;;;;;;;;10487833;28;20106;-74
2023/11/28 14:51:58;;;;;;;2.53;1.95;;;;;;;;;;10484942;28;20040;-74
2023/11/28 14:57:03;;;;;;;2.28;1.50;;;;;;;;;;10488974;28;20060;-74
2023/11/28 15:02:12;;;;;;;2.28;2.08;;;;;;;;;;10487566;28;20079;-74
2023/11/28 15:07:18;;;;;;;2.47;1.70;;;;;;;;;;10465328;28;20068;-74
2023/11/28 15:12:23;;;;;;;1.90;1.60;;;;;;;;;;10487960;28;20478;-74
2023/11/28 15:17:48;;;;;;;1.50;1.33;;;;;;;;;;10464375;28;20049;-74
2023/11/28 15:22:54;;;;;;;2.15;1.80;;;;;;;;;;10489700;28;20136;-74
2023/11/28 15:28:04;;;;;;;1.98;1.70;;;;;;;;;;10491692;28;20391;-74
2023/11/28 15:33:08;;;;;;;1.90;1.80;;;;;;;;;;10491430;28;20395;-74
2023/11/28 15:38:11;;;;;;;2.05;1.70;;;;;;;;;;10487220;28;20510;-74
2023/11/28 15:43:27;;;;;;;3.08;2.30;;;;;;;;;;10487819;28;20072;-74
2023/11/28 15:48:35;;;;;;;2.60;1.70;;;;;;;;;;10485007;28;20052;-74
2023/11/28 15:53:38;;;;;;;;;;;;;;;;;;10485847;28;20666;-74
2023/11/28 16:31:01;;;;;;;7.93;5.13;;;;;;;;;;10146917;29;20062;-74
2023/11/28 16:36:48;;;;;;;7.07;4.28;;;;;;;;;;10399634;28;20060;-74
2023/11/28 16:42:11;;;;;;;6.07;3.90;;;;;;;;;;10490589;28;20136;-74
2023/11/28 16:47:30;;;;;;;4.32;2.72;;;;;;;;;;10486511;28;20048;-74
2023/11/28 16:52:45;;;;;;;;;;;;;;;;;;;;;
2023/11/28 16:57:49;;;;;;;3.27;2.60;;;;;;;;;;10477898;28;20076;-74
2023/11/28 17:03:25;;;;;;;5.85;3.78;;;;;;;;;;10465776;28;20417;-74
2023/11/28 17:08:49;;;;;;;4.55;3.28;;;;;;;;;;10469658;28;20080;-74
2023/11/28 17:14:00;;;;;;;5.25;3.17;;;;;;;;;;10483903;28;20065;-74
2023/11/28 17:19:04;;;;;;;5.55;3.28;;;;;;;;;;10483295;28;20056;-74
2023/11/28 17:24:12;;;;;;;7.03;4.10;;;;;;;;;;10484840;28;20585;-74
2023/11/28 17:29:16;;;;;;;9.75;7.38;;;;;;;;;;10481584;28;20040;-74
2023/11/28 17:34:20;;;;;;;9.25;7.20;;;;;;;;;;10487075;28;20067;-74
2023/11/28 17:39:25;;;;;;;6.80;4.70;;;;;;;;;;10468044;28;20072;-74
2023/11/28 17:44:28;;;;;;;5.82;3.97;;;;;;;;;;10489146;28;20048;-74
2023/11/28 17:49:32;;;;;;;5.90;4.65;;;;;;;;;;10462866;28;20071;-74
2023/11/28 17:54:37;;;;;;;4.65;3.95;;;;;;;;;;10488156;28;20043;-74
2023/11/28 17:59:41;;;;;;;4.53;3.60;;;;;;;;;;10481945;28;20534;-74
2023/11/28 18:04:44;;;;;;;3.78;2.92;;;;;;;;;;10481582;28;20091;-74
2023/11/28 18:09:49;;;;;;;4.05;2.90;;;;;;;;;;10482880;28;20041;-74
2023/11/28 18:14:53;;;;;;;2.65;2.40;;;;;;;;;;10485861;28;20426;-74
2023/11/28 18:19:56;;;;;;;3.55;2.53;;;;;;;;;;10488466;28;20068;-74
2023/11/28 18:25:01;;;;;;;3.17;2.67;;;;;;;;;;10485741;28;20047;-74
2023/11/28 18:30:06;;;;;;;4.80;2.70;;;;;;;;;;10484275;28;20560;-74
2023/11/28 18:35:09;;;;;;;3.60;2.72;;;;;;;;;;10483206;28;20051;-74
2023/11/28 18:40:15;;;;;;;2.88;2.50;;;;;;;;;;10482910;28;20059;-74
2023/11/28 18:45:19;;;;;;;;;;;;;;;;;;10468310;28;20677;-74
2023/11/28 18:50:22;;;;;;;4.40;3.28;;;;;;;;;;10484962;28;19924;-73
2023/11/28 18:55:28;;;;;;;5.13;3.75;;;;;;;;;;10483255;28;20074;-74
2023/11/28 19:00:31;;;;;;;5.60;4.03;;;;;;;;;;10485403;28;20051;-73
2023/11/28 19:05:35;;;;;;;5.57;4.30;;;;;;;;;;10485326;28;20064;-73
2023/11/28 19:10:39;;;;;;;6.35;4.20;;;;;;;;;;10487623;28;20531;-74
2023/11/28 19:15:43;;;;;;;6.53;3.80;;;;;;;;;;10483381;28;20040;-74
2023/11/28 19:20:47;;;;;;;4.72;3.60;;;;;;;;;;10474437;28;20524;-74
2023/11/28 19:25:51;;;;;;;4.78;3.63;;;;;;;;;;10484728;28;20448;-74
2023/11/28 19:30:55;;;;;;;4.75;3.75;;;;;;;;;;10479011;28;20052;-74
2023/11/28 19:35:59;;;;;;;4.30;3.70;;;;;;;;;;10483768;28;20071;-74
2023/11/28 19:41:04;;;;;;;4.47;3.50;;;;;;;;;;10480421;28;20619;-74
2023/11/28 19:46:07;;;;;;;5.57;3.80;;;;;;;;;;10482304;28;20059;-73
2023/11/28 19:51:11;;;;;;;5.45;3.88;;;;;;;;;;10464385;28;20067;-73
2023/11/28 19:56:16;;;;;;;6.85;5.13;;;;;;;;;;10483018;28;20516;-73
2023/11/28 20:01:21;;;;;;;7.57;5.20;;;;;;;;;;10480906;28;20056;-73
2023/11/28 20:06:24;;;;;;;6.70;5.10;;;;;;;;;;10460408;28;20344;-74
2023/11/28 20:11:29;;;;;;;5.93;4.82;;;;;;;;;;10440544;28;20047;-73
2023/11/28 20:16:32;;;;;;;6.22;4.68;;;;;;;;;;10439866;28;20048;-74
2023/11/28 20:21:35;;;;;;;5.47;4.60;;;;;;;;;;10440042;28;20486;-73
2023/11/28 20:26:44;;;;;;;5.72;4.70;;;;;;;;;;10441619;28;20051;-74
2023/11/28 20:31:47;;;;;;;6.95;4.78;;;;;;;;;;10445828;28;20494;-74
2023/11/28 20:36:51;;;;;;;7.13;4.72;;;;;;;;;;10443248;28;20513;-74
2023/11/28 20:41:56;;;;;;;7.07;4.18;;;;;;;;;;10420572;28;20056;-73
2023/11/28 20:46:59;;;;;;;4.95;4.00;;;;;;;;;;10439763;28;20629;-74
2023/11/28 20:52:02;;;;;;;9.45;5.50;;;;;;;;;;10439598;28;20050;-73
2023/11/28 20:57:07;;;;;;;8.32;5.55;;;;;;;;;;10438613;28;20087;-74
2023/11/28 21:02:10;;;;;;;10.50;6.28;;;;;;;;;;10446837;28;20056;-74
2023/11/28 21:07:14;;;;;;;9.27;5.93;;;;;;;;;;10448721;28;20049;-74
2023/11/28 21:12:19;;;;;;;9.65;6.25;;;;;;;;;;10448612;28;20140;-74
2023/11/28 21:17:22;;;;;;;7.22;4.95;;;;;;;;;;10449788;28;20045;-74
2023/11/28 21:22:25;;;;;;;7.90;5.18;;;;;;;;;;10446499;28;20524;-74
2023/11/28 21:27:30;;;;;;;9.65;5.60;;;;;;;;;;10446964;28;20077;-73
2023/11/28 21:32:33;;;;;;;11.30;5.47;;;;;;;;;;10431751;28;20140;-74
2023/11/28 21:37:37;;;;;;;10.65;6.00;;;;;;;;;;10438133;28;20122;-73
2023/11/28 21:42:41;;;;;;;8.77;6.50;;;;;;;;;;10447612;28;20559;-73
2023/11/28 21:47:45;;;;;;;12.98;6.88;;;;;;;;;;10419626;28;20057;-73
2023/11/28 21:52:48;;;;;;;10.20;6.65;;;;;;;;;;10447200;28;20060;-73
2023/11/28 21:58:23;;;;;;;;;;;;;;;;;;;;;
2023/11/28 22:09:24;;;;;;;5.47;3.80;;;;;;;;;;10541299;28;20105;-75
2023/11/28 22:14:53;;;;;;;4.55;3.90;;;;;;;;;;10554337;28;20062;-75
2023/11/28 22:20:00;;;;;;;4.47;3.50;;;;;;;;;;10549801;28;20036;-75
2023/11/28 22:25:13;;;;;;;3.85;3.17;;;;;;;;;;10542940;28;20298;-75
2023/11/28 22:30:42;;;;;;;4.80;3.15;;;;;;;;;;10533648;28;20052;-75
2023/11/28 22:36:31;;;;;;;3.47;3.03;;;;;;;;;;10548279;28;20508;-75
2023/11/28 22:41:59;;;;;;;;;;;;;;;;;;;;;
2023/11/28 22:47:39;;;;;;;;;;;;;;;;;;;;;
2023/11/28 22:53:04;;;;;;;4.32;3.55;;;;;;;;;;10534735;28;20040;-75
2023/11/28 22:58:21;;;;;;;3.88;3.20;;;;;;;;;;10526388;28;20089;-75
2023/11/28 23:03:42;;;;;;;4.65;3.97;;;;;;;;;;10532098;28;20142;-75
2023/11/28 23:08:57;;;;;;;;;;;;;;;;;;;;;
2023/11/28 23:14:10;;;;;;;3.88;3.20;;;;;;;;;;10557950;28;20052;-75
2023/11/28 23:19:25;;;;;;;10.02;5.75;;;;;;;;;;10532013;28;20056;-75
2023/11/28 23:24:58;;;;;;;5.93;4.40;;;;;;;;;;10540771;28;20067;-75
2023/11/28 23:30:35;;;;;;;5.05;3.80;;;;;;;;;;10531324;28;20070;-75
2023/11/28 23:35:55;;;;;;;4.22;3.40;;;;;;;;;;10553620;28;20050;-75
2023/11/28 23:41:11;;;;;;;4.60;3.85;;;;;;;;;;10552506;28;20128;-74
2023/11/28 23:46:25;;;;;;;4.50;3.80;;;;;;;;;;10512840;28;20127;-75
2023/11/28 23:52:11;;;;;;;7.43;4.72;;;;;;;;;;10536935;28;20411;-75
2023/11/28 23:57:31;;;;;;;4.47;3.78;;;;;;;;;;10521721;28;20606;-75
